sensor_id;sensor_type;location;lat;lon;timestamp;P1;durP1;ratioP1;P2;durP2;ratioP2
76023;SDS011;64719;52.124;6.226;2023-09-30T00:01:11;12.43;;;5.28;;
76023;SDS011;64719;52.124;6.226;2023-09-30T00:03:40;17.02;;;6.28;;
76023;SDS011;64719;52.124;6.226;2023-09-30T00:06:10;13.05;;;5.53;;
76023;SDS011;64719;52.124;6.226;2023-09-30T00:08:37;14.13;;;6.25;;
76023;SDS011;64719;52.124;6.226;2023-09-30T00:11:04;19.33;;;6.65;;
76023;SDS011;64719;52.124;6.226;2023-09-30T00:13:31;19.40;;;6.38;;
76023;SDS011;64719;52.124;6.226;2023-09-30T00:15:58;19.73;;;5.65;;
76023;SDS011;64719;52.124;6.226;2023-09-30T00:18:24;22.73;;;6.28;;
76023;SDS011;64719;52.124;6.226;2023-09-30T00:20:53;18.48;;;6.00;;
76023;SDS011;64719;52.124;6.226;2023-09-30T00:23:20;19.73;;;6.78;;
76023;SDS011;64719;52.124;6.226;2023-09-30T00:25:47;17.40;;;6.50;;
76023;SDS011;64719;52.124;6.226;2023-09-30T00:28:14;17.35;;;5.25;;
76023;SDS011;64719;52.124;6.226;2023-09-30T00:30:41;17.70;;;6.20;;
76023;SDS011;64719;52.124;6.226;2023-09-30T00:33:11;17.80;;;6.72;;
76023;SDS011;64719;52.124;6.226;2023-09-30T00:35:37;18.67;;;5.63;;
76023;SDS011;64719;52.124;6.226;2023-09-30T00:38:05;19.05;;;6.07;;
76023;SDS011;64719;52.124;6.226;2023-09-30T00:40:31;15.32;;;5.60;;
76023;SDS011;64719;52.124;6.226;2023-09-30T00:43:00;13.85;;;5.75;;
76023;SDS011;64719;52.124;6.226;2023-09-30T00:45:26;18.70;;;6.75;;
76023;SDS011;64719;52.124;6.226;2023-09-30T00:47:53;22.33;;;7.20;;
76023;SDS011;64719;52.124;6.226;2023-09-30T00:50:20;16.60;;;6.70;;
76023;SDS011;64719;52.124;6.226;2023-09-30T00:52:47;24.10;;;7.28;;
76023;SDS011;64719;52.124;6.226;2023-09-30T00:55:16;22.50;;;7.25;;
76023;SDS011;64719;52.124;6.226;2023-09-30T00:57:44;17.63;;;7.00;;
76023;SDS011;64719;52.124;6.226;2023-09-30T01:00:12;17.88;;;7.35;;
76023;SDS011;64719;52.124;6.226;2023-09-30T01:02:39;15.93;;;6.47;;
76023;SDS011;64719;52.124;6.226;2023-09-30T01:05:06;21.90;;;7.53;;
76023;SDS011;64719;52.124;6.226;2023-09-30T01:07:33;18.63;;;6.80;;
76023;SDS011;64719;52.124;6.226;2023-09-30T01:10:00;21.48;;;6.63;;
76023;SDS011;64719;52.124;6.226;2023-09-30T01:12:28;15.10;;;6.13;;
76023;SDS011;64719;52.124;6.226;2023-09-30T01:14:57;16.08;;;6.70;;
76023;SDS011;64719;52.124;6.226;2023-09-30T01:17:24;22.60;;;7.68;;
76023;SDS011;64719;52.124;6.226;2023-09-30T01:19:51;19.90;;;6.72;;
76023;SDS011;64719;52.124;6.226;2023-09-30T01:22:19;16.00;;;5.78;;
76023;SDS011;64719;52.124;6.226;2023-09-30T01:24:46;26.40;;;7.28;;
76023;SDS011;64719;52.124;6.226;2023-09-30T01:27:13;13.15;;;5.35;;
76023;SDS011;64719;52.124;6.226;2023-09-30T01:29:42;20.73;;;7.50;;
76023;SDS011;64719;52.124;6.226;2023-09-30T01:32:08;18.08;;;6.55;;
76023;SDS011;64719;52.124;6.226;2023-09-30T01:34:36;22.10;;;8.07;;
76023;SDS011;64719;52.124;6.226;2023-09-30T01:37:03;18.35;;;6.78;;
76023;SDS011;64719;52.124;6.226;2023-09-30T01:39:31;19.92;;;7.68;;
76023;SDS011;64719;52.124;6.226;2023-09-30T01:41:58;22.50;;;7.78;;
76023;SDS011;64719;52.124;6.226;2023-09-30T01:44:25;24.45;;;8.35;;
76023;SDS011;64719;52.124;6.226;2023-09-30T01:46:52;24.23;;;7.18;;
76023;SDS011;64719;52.124;6.226;2023-09-30T01:49:19;18.38;;;6.25;;
76023;SDS011;64719;52.124;6.226;2023-09-30T01:51:49;16.80;;;6.47;;
76023;SDS011;64719;52.124;6.226;2023-09-30T01:54:15;19.20;;;6.05;;
76023;SDS011;64719;52.124;6.226;2023-09-30T01:56:43;22.88;;;6.50;;
76023;SDS011;64719;52.124;6.226;2023-09-30T01:59:10;20.45;;;6.75;;
76023;SDS011;64719;52.124;6.226;2023-09-30T02:01:36;14.20;;;5.90;;
76023;SDS011;64719;52.124;6.226;2023-09-30T02:04:03;16.92;;;6.82;;
76023;SDS011;64719;52.124;6.226;2023-09-30T02:08:58;19.63;;;6.72;;
76023;SDS011;64719;52.124;6.226;2023-09-30T02:11:24;21.08;;;7.13;;
76023;SDS011;64719;52.124;6.226;2023-09-30T02:13:52;20.45;;;6.97;;
76023;SDS011;64719;52.124;6.226;2023-09-30T02:16:18;22.00;;;7.57;;
76023;SDS011;64719;52.124;6.226;2023-09-30T02:18:45;17.10;;;7.15;;
76023;SDS011;64719;52.124;6.226;2023-09-30T02:21:12;18.52;;;6.97;;
76023;SDS011;64719;52.124;6.226;2023-09-30T02:23:39;20.10;;;7.85;;
76023;SDS011;64719;52.124;6.226;2023-09-30T02:26:05;21.10;;;7.68;;
76023;SDS011;64719;52.124;6.226;2023-09-30T02:28:32;22.17;;;8.75;;
76023;SDS011;64719;52.124;6.226;2023-09-30T02:31:00;20.15;;;7.88;;
76023;SDS011;64719;52.124;6.226;2023-09-30T02:33:27;18.38;;;7.38;;
76023;SDS011;64719;52.124;6.226;2023-09-30T02:35:54;15.25;;;7.32;;
76023;SDS011;64719;52.124;6.226;2023-09-30T02:38:21;19.80;;;7.40;;
76023;SDS011;64719;52.124;6.226;2023-09-30T02:40:48;19.35;;;7.07;;
76023;SDS011;64719;52.124;6.226;2023-09-30T02:43:15;27.92;;;9.13;;
76023;SDS011;64719;52.124;6.226;2023-09-30T02:45:41;16.75;;;7.53;;
76023;SDS011;64719;52.124;6.226;2023-09-30T02:48:10;22.40;;;8.57;;
76023;SDS011;64719;52.124;6.226;2023-09-30T02:50:36;19.77;;;8.20;;
76023;SDS011;64719;52.124;6.226;2023-09-30T02:53:04;22.65;;;8.30;;
76023;SDS011;64719;52.124;6.226;2023-09-30T02:55:31;21.35;;;8.93;;
76023;SDS011;64719;52.124;6.226;2023-09-30T02:57:57;21.83;;;9.27;;
76023;SDS011;64719;52.124;6.226;2023-09-30T03:00:26;22.98;;;9.93;;
76023;SDS011;64719;52.124;6.226;2023-09-30T03:02:57;27.00;;;9.90;;
76023;SDS011;64719;52.124;6.226;2023-09-30T03:05:28;21.90;;;9.35;;
76023;SDS011;64719;52.124;6.226;2023-09-30T03:07:55;29.45;;;10.27;;
76023;SDS011;64719;52.124;6.226;2023-09-30T03:10:22;26.65;;;9.10;;
76023;SDS011;64719;52.124;6.226;2023-09-30T03:12:49;26.70;;;9.40;;
76023;SDS011;64719;52.124;6.226;2023-09-30T03:15:16;24.90;;;10.35;;
76023;SDS011;64719;52.124;6.226;2023-09-30T03:17:43;26.27;;;11.25;;
76023;SDS011;64719;52.124;6.226;2023-09-30T03:20:10;25.33;;;10.13;;
76023;SDS011;64719;52.124;6.226;2023-09-30T03:22:40;24.40;;;9.90;;
76023;SDS011;64719;52.124;6.226;2023-09-30T03:25:08;25.08;;;10.65;;
76023;SDS011;64719;52.124;6.226;2023-09-30T03:27:36;26.42;;;10.48;;
76023;SDS011;64719;52.124;6.226;2023-09-30T03:30:04;25.98;;;9.63;;
76023;SDS011;64719;52.124;6.226;2023-09-30T03:34:58;21.73;;;9.60;;
76023;SDS011;64719;52.124;6.226;2023-09-30T03:37:26;22.50;;;9.10;;
76023;SDS011;64719;52.124;6.226;2023-09-30T03:39:54;22.98;;;9.70;;
76023;SDS011;64719;52.124;6.226;2023-09-30T03:44:47;20.80;;;8.95;;
76023;SDS011;64719;52.124;6.226;2023-09-30T03:47:14;23.88;;;9.15;;
76023;SDS011;64719;52.124;6.226;2023-09-30T03:49:40;21.70;;;8.70;;
76023;SDS011;64719;52.124;6.226;2023-09-30T03:52:07;21.55;;;8.30;;
76023;SDS011;64719;52.124;6.226;2023-09-30T03:54:34;25.58;;;10.50;;
76023;SDS011;64719;52.124;6.226;2023-09-30T03:57:03;20.52;;;9.38;;
76023;SDS011;64719;52.124;6.226;2023-09-30T03:59:30;23.92;;;9.93;;
76023;SDS011;64719;52.124;6.226;2023-09-30T04:01:57;23.85;;;8.80;;
76023;SDS011;64719;52.124;6.226;2023-09-30T04:04:24;28.75;;;10.40;;
76023;SDS011;64719;52.124;6.226;2023-09-30T04:06:51;27.70;;;10.30;;
76023;SDS011;64719;52.124;6.226;2023-09-30T04:09:17;23.75;;;10.05;;
76023;SDS011;64719;52.124;6.226;2023-09-30T04:11:44;27.17;;;10.70;;
76023;SDS011;64719;52.124;6.226;2023-09-30T04:14:12;25.10;;;10.27;;
76023;SDS011;64719;52.124;6.226;2023-09-30T04:16:42;21.15;;;10.10;;
76023;SDS011;64719;52.124;6.226;2023-09-30T04:19:09;27.23;;;11.02;;
76023;SDS011;64719;52.124;6.226;2023-09-30T04:21:36;23.85;;;10.48;;
76023;SDS011;64719;52.124;6.226;2023-09-30T04:24:04;25.98;;;11.85;;
76023;SDS011;64719;52.124;6.226;2023-09-30T04:26:32;28.88;;;11.98;;
76023;SDS011;64719;52.124;6.226;2023-09-30T04:28:58;29.15;;;11.80;;
76023;SDS011;64719;52.124;6.226;2023-09-30T04:31:27;27.52;;;12.32;;
76023;SDS011;64719;52.124;6.226;2023-09-30T04:33:54;30.90;;;10.95;;
76023;SDS011;64719;52.124;6.226;2023-09-30T04:36:23;29.63;;;11.38;;
76023;SDS011;64719;52.124;6.226;2023-09-30T04:38:49;26.13;;;11.95;;
76023;SDS011;64719;52.124;6.226;2023-09-30T04:41:16;27.40;;;11.82;;
76023;SDS011;64719;52.124;6.226;2023-09-30T04:43:44;29.20;;;12.85;;
76023;SDS011;64719;52.124;6.226;2023-09-30T04:46:11;28.88;;;12.40;;
76023;SDS011;64719;52.124;6.226;2023-09-30T04:48:40;29.80;;;12.15;;
76023;SDS011;64719;52.124;6.226;2023-09-30T04:51:07;28.98;;;11.25;;
76023;SDS011;64719;52.124;6.226;2023-09-30T04:53:34;30.38;;;12.13;;
76023;SDS011;64719;52.124;6.226;2023-09-30T04:56:00;32.10;;;13.85;;
76023;SDS011;64719;52.124;6.226;2023-09-30T04:58:28;33.03;;;13.98;;
76023;SDS011;64719;52.124;6.226;2023-09-30T05:00:56;30.90;;;13.40;;
76023;SDS011;64719;52.124;6.226;2023-09-30T05:03:23;27.08;;;12.60;;
76023;SDS011;64719;52.124;6.226;2023-09-30T05:05:51;27.50;;;12.07;;
76023;SDS011;64719;52.124;6.226;2023-09-30T05:08:20;32.15;;;13.27;;
76023;SDS011;64719;52.124;6.226;2023-09-30T05:10:47;28.05;;;12.40;;
76023;SDS011;64719;52.124;6.226;2023-09-30T05:13:14;31.73;;;12.82;;
76023;SDS011;64719;52.124;6.226;2023-09-30T05:15:40;32.75;;;13.32;;
76023;SDS011;64719;52.124;6.226;2023-09-30T05:18:07;25.38;;;12.63;;
76023;SDS011;64719;52.124;6.226;2023-09-30T05:20:34;32.65;;;13.40;;
76023;SDS011;64719;52.124;6.226;2023-09-30T05:23:03;31.25;;;13.85;;
76023;SDS011;64719;52.124;6.226;2023-09-30T05:25:32;28.25;;;13.75;;
76023;SDS011;64719;52.124;6.226;2023-09-30T05:27:58;27.73;;;12.82;;
76023;SDS011;64719;52.124;6.226;2023-09-30T05:30:25;32.92;;;13.68;;
76023;SDS011;64719;52.124;6.226;2023-09-30T05:32:51;29.63;;;13.50;;
76023;SDS011;64719;52.124;6.226;2023-09-30T05:35:19;27.05;;;13.50;;
76023;SDS011;64719;52.124;6.226;2023-09-30T05:37:47;34.45;;;14.32;;
76023;SDS011;64719;52.124;6.226;2023-09-30T05:40:18;30.55;;;14.05;;
76023;SDS011;64719;52.124;6.226;2023-09-30T05:42:50;26.80;;;12.00;;
76023;SDS011;64719;52.124;6.226;2023-09-30T05:45:17;40.50;;;15.15;;
76023;SDS011;64719;52.124;6.226;2023-09-30T05:47:44;33.35;;;16.58;;
76023;SDS011;64719;52.124;6.226;2023-09-30T05:50:10;36.45;;;15.48;;
76023;SDS011;64719;52.124;6.226;2023-09-30T05:52:39;32.22;;;15.65;;
76023;SDS011;64719;52.124;6.226;2023-09-30T05:55:06;28.17;;;12.13;;
76023;SDS011;64719;52.124;6.226;2023-09-30T05:57:34;26.30;;;12.77;;
76023;SDS011;64719;52.124;6.226;2023-09-30T06:00:01;29.15;;;13.68;;
76023;SDS011;64719;52.124;6.226;2023-09-30T06:02:31;31.05;;;14.13;;
76023;SDS011;64719;52.124;6.226;2023-09-30T06:04:58;23.90;;;13.30;;
76023;SDS011;64719;52.124;6.226;2023-09-30T06:07:26;21.45;;;11.32;;
76023;SDS011;64719;52.124;6.226;2023-09-30T06:09:52;27.25;;;12.68;;
76023;SDS011;64719;52.124;6.226;2023-09-30T06:12:19;31.58;;;13.57;;
76023;SDS011;64719;52.124;6.226;2023-09-30T06:14:47;22.95;;;13.18;;
76023;SDS011;64719;52.124;6.226;2023-09-30T06:17:13;23.02;;;12.73;;
76023;SDS011;64719;52.124;6.226;2023-09-30T06:19:40;26.17;;;13.77;;
76023;SDS011;64719;52.124;6.226;2023-09-30T06:22:07;22.60;;;13.00;;
76023;SDS011;64719;52.124;6.226;2023-09-30T06:24:33;26.23;;;12.35;;
76023;SDS011;64719;52.124;6.226;2023-09-30T06:27:00;29.15;;;13.95;;
76023;SDS011;64719;52.124;6.226;2023-09-30T06:29:26;24.88;;;13.60;;
76023;SDS011;64719;52.124;6.226;2023-09-30T06:31:55;25.50;;;12.60;;
76023;SDS011;64719;52.124;6.226;2023-09-30T06:34:21;23.13;;;13.13;;
76023;SDS011;64719;52.124;6.226;2023-09-30T06:36:48;23.20;;;12.52;;
76023;SDS011;64719;52.124;6.226;2023-09-30T06:39:15;23.75;;;12.65;;
76023;SDS011;64719;52.124;6.226;2023-09-30T06:41:41;22.58;;;12.60;;
76023;SDS011;64719;52.124;6.226;2023-09-30T06:44:08;19.63;;;11.85;;
76023;SDS011;64719;52.124;6.226;2023-09-30T06:46:35;23.67;;;11.63;;
76023;SDS011;64719;52.124;6.226;2023-09-30T06:49:04;23.92;;;12.60;;
76023;SDS011;64719;52.124;6.226;2023-09-30T06:51:31;22.40;;;11.88;;
76023;SDS011;64719;52.124;6.226;2023-09-30T06:53:57;21.15;;;11.57;;
76023;SDS011;64719;52.124;6.226;2023-09-30T06:56:24;21.88;;;11.20;;
76023;SDS011;64719;52.124;6.226;2023-09-30T06:58:50;21.80;;;11.75;;
76023;SDS011;64719;52.124;6.226;2023-09-30T07:01:17;21.00;;;11.68;;
76023;SDS011;64719;52.124;6.226;2023-09-30T07:03:43;22.95;;;11.55;;
76023;SDS011;64719;52.124;6.226;2023-09-30T07:06:11;20.70;;;11.25;;
76023;SDS011;64719;52.124;6.226;2023-09-30T07:08:38;18.20;;;10.30;;
76023;SDS011;64719;52.124;6.226;2023-09-30T07:11:05;18.63;;;11.85;;
76023;SDS011;64719;52.124;6.226;2023-09-30T07:13:32;17.98;;;9.90;;
76023;SDS011;64719;52.124;6.226;2023-09-30T07:15:59;19.92;;;10.13;;
76023;SDS011;64719;52.124;6.226;2023-09-30T07:18:25;13.95;;;8.88;;
76023;SDS011;64719;52.124;6.226;2023-09-30T07:20:52;17.45;;;9.55;;
76023;SDS011;64719;52.124;6.226;2023-09-30T07:23:20;16.98;;;10.35;;
76023;SDS011;64719;52.124;6.226;2023-09-30T07:25:47;15.43;;;10.40;;
76023;SDS011;64719;52.124;6.226;2023-09-30T07:28:13;16.17;;;9.63;;
76023;SDS011;64719;52.124;6.226;2023-09-30T07:30:40;14.60;;;9.18;;
76023;SDS011;64719;52.124;6.226;2023-09-30T07:33:07;16.27;;;9.63;;
76023;SDS011;64719;52.124;6.226;2023-09-30T07:35:34;14.10;;;9.68;;
76023;SDS011;64719;52.124;6.226;2023-09-30T07:38:01;16.52;;;9.45;;
76023;SDS011;64719;52.124;6.226;2023-09-30T07:40:30;14.82;;;9.30;;
76023;SDS011;64719;52.124;6.226;2023-09-30T07:42:57;16.50;;;9.32;;
76023;SDS011;64719;52.124;6.226;2023-09-30T07:45:24;15.40;;;9.43;;
76023;SDS011;64719;52.124;6.226;2023-09-30T07:47:50;14.40;;;8.52;;
76023;SDS011;64719;52.124;6.226;2023-09-30T07:50:17;14.65;;;8.98;;
76023;SDS011;64719;52.124;6.226;2023-09-30T07:52:44;13.90;;;8.65;;
76023;SDS011;64719;52.124;6.226;2023-09-30T07:55:11;15.90;;;8.38;;
76023;SDS011;64719;52.124;6.226;2023-09-30T07:57:40;14.32;;;8.88;;
76023;SDS011;64719;52.124;6.226;2023-09-30T08:00:08;12.68;;;8.50;;
76023;SDS011;64719;52.124;6.226;2023-09-30T08:02:40;12.95;;;7.88;;
76023;SDS011;64719;52.124;6.226;2023-09-30T08:05:07;11.40;;;8.13;;
76023;SDS011;64719;52.124;6.226;2023-09-30T08:07:34;13.10;;;8.43;;
76023;SDS011;64719;52.124;6.226;2023-09-30T08:10:00;13.20;;;8.15;;
76023;SDS011;64719;52.124;6.226;2023-09-30T08:12:29;14.00;;;8.38;;
76023;SDS011;64719;52.124;6.226;2023-09-30T08:17:24;12.57;;;7.65;;
76023;SDS011;64719;52.124;6.226;2023-09-30T08:19:51;11.73;;;7.55;;
76023;SDS011;64719;52.124;6.226;2023-09-30T08:22:17;13.70;;;8.55;;
76023;SDS011;64719;52.124;6.226;2023-09-30T08:24:44;14.30;;;8.50;;
76023;SDS011;64719;52.124;6.226;2023-09-30T08:27:10;15.45;;;8.40;;
76023;SDS011;64719;52.124;6.226;2023-09-30T08:29:37;14.18;;;7.57;;
76023;SDS011;64719;52.124;6.226;2023-09-30T08:32:05;13.07;;;7.28;;
76023;SDS011;64719;52.124;6.226;2023-09-30T08:34:32;11.30;;;7.55;;
76023;SDS011;64719;52.124;6.226;2023-09-30T08:36:58;16.95;;;7.78;;
76023;SDS011;64719;52.124;6.226;2023-09-30T08:39:27;11.65;;;7.93;;
76023;SDS011;64719;52.124;6.226;2023-09-30T08:41:54;11.35;;;7.75;;
76023;SDS011;64719;52.124;6.226;2023-09-30T08:44:21;13.35;;;7.88;;
76023;SDS011;64719;52.124;6.226;2023-09-30T08:46:47;13.75;;;7.90;;
76023;SDS011;64719;52.124;6.226;2023-09-30T08:49:18;10.80;;;7.25;;
76023;SDS011;64719;52.124;6.226;2023-09-30T08:51:46;14.05;;;7.85;;
76023;SDS011;64719;52.124;6.226;2023-09-30T08:54:15;11.85;;;7.97;;
76023;SDS011;64719;52.124;6.226;2023-09-30T08:56:42;15.45;;;7.32;;
76023;SDS011;64719;52.124;6.226;2023-09-30T08:59:13;14.15;;;8.02;;
76023;SDS011;64719;52.124;6.226;2023-09-30T09:01:41;12.20;;;7.68;;
76023;SDS011;64719;52.124;6.226;2023-09-30T09:04:07;11.55;;;7.25;;
76023;SDS011;64719;52.124;6.226;2023-09-30T09:06:35;13.50;;;7.78;;
76023;SDS011;64719;52.124;6.226;2023-09-30T09:09:14;11.68;;;6.95;;
76023;SDS011;64719;52.124;6.226;2023-09-30T09:11:42;13.48;;;7.28;;
76023;SDS011;64719;52.124;6.226;2023-09-30T09:16:35;10.65;;;6.75;;
76023;SDS011;64719;52.124;6.226;2023-09-30T09:19:12;11.98;;;7.60;;
76023;SDS011;64719;52.124;6.226;2023-09-30T09:21:52;12.25;;;7.10;;
76023;SDS011;64719;52.124;6.226;2023-09-30T09:24:27;12.98;;;6.68;;
76023;SDS011;64719;52.124;6.226;2023-09-30T09:27:03;11.35;;;6.35;;
76023;SDS011;64719;52.124;6.226;2023-09-30T09:29:31;10.48;;;6.75;;
76023;SDS011;64719;52.124;6.226;2023-09-30T09:32:06;10.88;;;6.30;;
76023;SDS011;64719;52.124;6.226;2023-09-30T09:34:34;11.70;;;6.38;;
76023;SDS011;64719;52.124;6.226;2023-09-30T09:39:38;10.57;;;6.45;;
76023;SDS011;64719;52.124;6.226;2023-09-30T09:42:04;12.70;;;6.75;;
76023;SDS011;64719;52.124;6.226;2023-09-30T09:44:31;12.02;;;6.75;;
76023;SDS011;64719;52.124;6.226;2023-09-30T09:46:59;11.25;;;5.75;;
76023;SDS011;64719;52.124;6.226;2023-09-30T09:49:31;13.15;;;5.65;;
76023;SDS011;64719;52.124;6.226;2023-09-30T09:51:58;10.82;;;5.70;;
76023;SDS011;64719;52.124;6.226;2023-09-30T09:54:28;10.75;;;5.80;;
76023;SDS011;64719;52.124;6.226;2023-09-30T09:56:54;9.95;;;6.03;;
76023;SDS011;64719;52.124;6.226;2023-09-30T09:59:26;12.88;;;6.22;;
76023;SDS011;64719;52.124;6.226;2023-09-30T10:01:54;11.52;;;5.80;;
76023;SDS011;64719;52.124;6.226;2023-09-30T10:04:21;9.10;;;5.18;;
76023;SDS011;64719;52.124;6.226;2023-09-30T10:06:50;9.75;;;5.10;;
76023;SDS011;64719;52.124;6.226;2023-09-30T10:09:19;14.60;;;5.97;;
76023;SDS011;64719;52.124;6.226;2023-09-30T10:11:47;8.43;;;5.07;;
76023;SDS011;64719;52.124;6.226;2023-09-30T10:14:29;8.35;;;4.55;;
76023;SDS011;64719;52.124;6.226;2023-09-30T10:16:57;9.68;;;4.82;;
76023;SDS011;64719;52.124;6.226;2023-09-30T10:19:24;10.75;;;5.70;;
76023;SDS011;64719;52.124;6.226;2023-09-30T10:24:51;10.32;;;4.90;;
76023;SDS011;64719;52.124;6.226;2023-09-30T10:27:30;8.70;;;4.55;;
76023;SDS011;64719;52.124;6.226;2023-09-30T10:29:58;10.65;;;4.78;;
76023;SDS011;64719;52.124;6.226;2023-09-30T10:41:08;10.88;;;4.00;;
76023;SDS011;64719;52.124;6.226;2023-09-30T10:43:38;11.45;;;3.95;;
76023;SDS011;64719;52.124;6.226;2023-09-30T10:49:16;8.00;;;2.60;;
76023;SDS011;64719;52.124;6.226;2023-09-30T10:51:57;8.63;;;2.90;;
76023;SDS011;64719;52.124;6.226;2023-09-30T10:54:26;7.47;;;2.63;;
76023;SDS011;64719;52.124;6.226;2023-09-30T10:56:53;7.47;;;2.35;;
76023;SDS011;64719;52.124;6.226;2023-09-30T10:59:22;8.93;;;1.98;;
76023;SDS011;64719;52.124;6.226;2023-09-30T11:01:50;8.35;;;2.75;;
76023;SDS011;64719;52.124;6.226;2023-09-30T11:04:18;7.50;;;2.08;;
76023;SDS011;64719;52.124;6.226;2023-09-30T11:06:45;5.85;;;2.10;;
76023;SDS011;64719;52.124;6.226;2023-09-30T11:11:43;9.27;;;2.10;;
76023;SDS011;64719;52.124;6.226;2023-09-30T11:14:17;7.00;;;2.03;;
76023;SDS011;64719;52.124;6.226;2023-09-30T11:16:49;7.47;;;1.95;;
76023;SDS011;64719;52.124;6.226;2023-09-30T11:19:17;5.07;;;2.15;;
76023;SDS011;64719;52.124;6.226;2023-09-30T11:21:45;4.38;;;1.88;;
76023;SDS011;64719;52.124;6.226;2023-09-30T11:24:14;7.07;;;1.80;;
76023;SDS011;64719;52.124;6.226;2023-09-30T11:26:41;7.68;;;2.42;;
76023;SDS011;64719;52.124;6.226;2023-09-30T11:29:09;9.20;;;2.78;;
76023;SDS011;64719;52.124;6.226;2023-09-30T11:31:37;6.35;;;2.10;;
76023;SDS011;64719;52.124;6.226;2023-09-30T11:34:05;6.43;;;2.10;;
76023;SDS011;64719;52.124;6.226;2023-09-30T11:36:34;5.43;;;1.80;;
76023;SDS011;64719;52.124;6.226;2023-09-30T11:39:01;6.63;;;2.40;;
76023;SDS011;64719;52.124;6.226;2023-09-30T11:41:34;5.43;;;2.22;;
76023;SDS011;64719;52.124;6.226;2023-09-30T11:44:04;6.43;;;2.15;;
76023;SDS011;64719;52.124;6.226;2023-09-30T11:46:33;6.82;;;2.28;;
76023;SDS011;64719;52.124;6.226;2023-09-30T11:49:23;7.25;;;2.53;;
76023;SDS011;64719;52.124;6.226;2023-09-30T11:51:51;5.97;;;2.53;;
76023;SDS011;64719;52.124;6.226;2023-09-30T11:54:17;5.45;;;2.20;;
76023;SDS011;64719;52.124;6.226;2023-09-30T11:56:44;6.88;;;1.70;;
76023;SDS011;64719;52.124;6.226;2023-09-30T11:59:12;6.90;;;2.47;;
76023;SDS011;64719;52.124;6.226;2023-09-30T12:01:39;7.72;;;2.20;;
76023;SDS011;64719;52.124;6.226;2023-09-30T12:04:06;8.00;;;2.25;;
76023;SDS011;64719;52.124;6.226;2023-09-30T12:06:35;6.60;;;1.80;;
76023;SDS011;64719;52.124;6.226;2023-09-30T12:09:03;6.45;;;1.90;;
76023;SDS011;64719;52.124;6.226;2023-09-30T12:11:30;10.43;;;2.05;;
76023;SDS011;64719;52.124;6.226;2023-09-30T12:13:56;6.45;;;1.90;;
76023;SDS011;64719;52.124;6.226;2023-09-30T12:16:23;7.22;;;2.15;;
76023;SDS011;64719;52.124;6.226;2023-09-30T12:18:50;6.72;;;1.90;;
76023;SDS011;64719;52.124;6.226;2023-09-30T12:21:16;7.95;;;2.10;;
76023;SDS011;64719;52.124;6.226;2023-09-30T12:23:46;6.10;;;2.00;;
76023;SDS011;64719;52.124;6.226;2023-09-30T12:26:13;8.55;;;2.78;;
76023;SDS011;64719;52.124;6.226;2023-09-30T12:28:42;13.45;;;2.55;;
76023;SDS011;64719;52.124;6.226;2023-09-30T12:31:09;7.40;;;2.45;;
76023;SDS011;64719;52.124;6.226;2023-09-30T12:33:36;7.35;;;2.63;;
76023;SDS011;64719;52.124;6.226;2023-09-30T12:36:03;9.13;;;2.40;;
76023;SDS011;64719;52.124;6.226;2023-09-30T12:38:30;7.90;;;2.20;;
76023;SDS011;64719;52.124;6.226;2023-09-30T12:40:58;8.60;;;2.53;;
76023;SDS011;64719;52.124;6.226;2023-09-30T12:43:25;9.10;;;2.58;;
76023;SDS011;64719;52.124;6.226;2023-09-30T12:45:52;8.02;;;2.08;;
76023;SDS011;64719;52.124;6.226;2023-09-30T12:48:18;5.68;;;2.10;;
76023;SDS011;64719;52.124;6.226;2023-09-30T12:50:45;7.47;;;2.20;;
76023;SDS011;64719;52.124;6.226;2023-09-30T12:53:11;10.57;;;2.75;;
76023;SDS011;64719;52.124;6.226;2023-09-30T12:55:38;7.97;;;2.70;;
76023;SDS011;64719;52.124;6.226;2023-09-30T12:58:06;7.90;;;2.50;;
76023;SDS011;64719;52.124;6.226;2023-09-30T13:00:33;6.70;;;2.35;;
76023;SDS011;64719;52.124;6.226;2023-09-30T13:03:00;9.30;;;2.58;;
76023;SDS011;64719;52.124;6.226;2023-09-30T13:05:27;8.75;;;2.58;;
76023;SDS011;64719;52.124;6.226;2023-09-30T13:07:55;6.68;;;2.30;;
76023;SDS011;64719;52.124;6.226;2023-09-30T13:10:22;8.38;;;2.58;;
76023;SDS011;64719;52.124;6.226;2023-09-30T13:12:48;7.95;;;2.92;;
76023;SDS011;64719;52.124;6.226;2023-09-30T13:15:17;9.07;;;2.88;;
76023;SDS011;64719;52.124;6.226;2023-09-30T13:17:43;9.48;;;2.75;;
76023;SDS011;64719;52.124;6.226;2023-09-30T13:20:10;7.03;;;2.63;;
76023;SDS011;64719;52.124;6.226;2023-09-30T13:22:37;6.28;;;2.20;;
76023;SDS011;64719;52.124;6.226;2023-09-30T13:25:04;8.13;;;2.50;;
76023;SDS011;64719;52.124;6.226;2023-09-30T13:27:33;7.72;;;2.63;;
76023;SDS011;64719;52.124;6.226;2023-09-30T13:29:59;6.43;;;2.55;;
76023;SDS011;64719;52.124;6.226;2023-09-30T13:32:28;6.68;;;2.67;;
76023;SDS011;64719;52.124;6.226;2023-09-30T13:34:54;7.00;;;2.50;;
76023;SDS011;64719;52.124;6.226;2023-09-30T13:37:21;8.88;;;2.70;;
76023;SDS011;64719;52.124;6.226;2023-09-30T13:39:47;6.07;;;2.30;;
76023;SDS011;64719;52.124;6.226;2023-09-30T13:44:42;6.22;;;2.50;;
76023;SDS011;64719;52.124;6.226;2023-09-30T13:47:09;8.05;;;2.70;;
76023;SDS011;64719;52.124;6.226;2023-09-30T13:49:37;7.10;;;2.47;;
76023;SDS011;64719;52.124;6.226;2023-09-30T13:52:03;7.13;;;2.55;;
76023;SDS011;64719;52.124;6.226;2023-09-30T13:54:30;6.30;;;2.38;;
76023;SDS011;64719;52.124;6.226;2023-09-30T13:56:57;7.13;;;2.42;;
76023;SDS011;64719;52.124;6.226;2023-09-30T13:59:24;5.68;;;2.13;;
76023;SDS011;64719;52.124;6.226;2023-09-30T14:01:50;6.10;;;2.22;;
76023;SDS011;64719;52.124;6.226;2023-09-30T14:04:18;11.20;;;2.90;;
76023;SDS011;64719;52.124;6.226;2023-09-30T14:06:46;6.45;;;2.53;;
76023;SDS011;64719;52.124;6.226;2023-09-30T14:09:13;7.43;;;2.60;;
76023;SDS011;64719;52.124;6.226;2023-09-30T14:11:40;7.00;;;2.72;;
76023;SDS011;64719;52.124;6.226;2023-09-30T14:14:06;8.60;;;2.70;;
76023;SDS011;64719;52.124;6.226;2023-09-30T14:16:34;6.03;;;2.13;;
76023;SDS011;64719;52.124;6.226;2023-09-30T14:19:01;6.95;;;2.78;;
76023;SDS011;64719;52.124;6.226;2023-09-30T14:21:29;7.38;;;2.28;;
76023;SDS011;64719;52.124;6.226;2023-09-30T14:23:58;6.60;;;2.60;;
76023;SDS011;64719;52.124;6.226;2023-09-30T14:26:26;8.18;;;2.65;;
76023;SDS011;64719;52.124;6.226;2023-09-30T14:28:54;6.85;;;2.42;;
76023;SDS011;64719;52.124;6.226;2023-09-30T14:31:20;5.15;;;2.33;;
76023;SDS011;64719;52.124;6.226;2023-09-30T14:33:47;9.40;;;2.58;;
76023;SDS011;64719;52.124;6.226;2023-09-30T14:36:13;5.20;;;2.40;;
76023;SDS011;64719;52.124;6.226;2023-09-30T14:38:40;6.40;;;2.42;;
76023;SDS011;64719;52.124;6.226;2023-09-30T14:41:09;7.10;;;2.85;;
76023;SDS011;64719;52.124;6.226;2023-09-30T14:43:37;7.18;;;2.53;;
76023;SDS011;64719;52.124;6.226;2023-09-30T14:46:04;7.95;;;2.63;;
76023;SDS011;64719;52.124;6.226;2023-09-30T14:48:31;7.57;;;2.45;;
76023;SDS011;64719;52.124;6.226;2023-09-30T14:50:57;8.60;;;2.83;;
76023;SDS011;64719;52.124;6.226;2023-09-30T14:53:24;8.35;;;2.25;;
76023;SDS011;64719;52.124;6.226;2023-09-30T14:55:50;8.52;;;2.55;;
76023;SDS011;64719;52.124;6.226;2023-09-30T14:58:18;7.35;;;2.55;;
76023;SDS011;64719;52.124;6.226;2023-09-30T15:00:45;6.18;;;2.20;;
76023;SDS011;64719;52.124;6.226;2023-09-30T15:03:12;8.63;;;2.20;;
76023;SDS011;64719;52.124;6.226;2023-09-30T15:05:38;8.75;;;3.25;;
76023;SDS011;64719;52.124;6.226;2023-09-30T15:08:05;6.70;;;2.08;;
76023;SDS011;64719;52.124;6.226;2023-09-30T15:10:34;7.45;;;2.30;;
76023;SDS011;64719;52.124;6.226;2023-09-30T15:13:00;5.80;;;2.47;;